sensor_id;sensor_type;location;lat;lon;timestamp;temperature;humidity
21280;DHT22;11764;43.100;25.716;2022-07-04T00:00:13;24.00;99.90
21280;DHT22;11764;43.100;25.716;2022-07-04T00:02:40;24.00;99.90
21280;DHT22;11764;43.100;25.716;2022-07-04T00:05:06;24.00;99.90
21280;DHT22;11764;43.100;25.716;2022-07-04T00:07:36;24.10;99.90
21280;DHT22;11764;43.100;25.716;2022-07-04T00:10:01;24.00;99.90
21280;DHT22;11764;43.100;25.716;2022-07-04T00:12:27;24.00;99.90
21280;DHT22;11764;43.100;25.716;2022-07-04T00:14:52;24.00;99.90
21280;DHT22;11764;43.100;25.716;2022-07-04T00:17:18;24.00;99.90
21280;DHT22;11764;43.100;25.716;2022-07-04T00:19:43;24.10;99.90
21280;DHT22;11764;43.100;25.716;2022-07-04T00:22:09;24.20;99.90
21280;DHT22;11764;43.100;25.716;2022-07-04T00:24:34;24.40;99.90
21280;DHT22;11764;43.100;25.716;2022-07-04T00:27:00;24.40;99.90
21280;DHT22;11764;43.100;25.716;2022-07-04T00:29:26;24.60;99.90
21280;DHT22;11764;43.100;25.716;2022-07-04T00:31:51;24.60;99.90
21280;DHT22;11764;43.100;25.716;2022-07-04T00:34:17;24.60;99.90
21280;DHT22;11764;43.100;25.716;2022-07-04T00:36:42;24.60;99.90
21280;DHT22;11764;43.100;25.716;2022-07-04T00:39:08;24.50;99.90
21280;DHT22;11764;43.100;25.716;2022-07-04T00:41:34;24.60;99.90
21280;DHT22;11764;43.100;25.716;2022-07-04T00:44:06;24.70;99.90
21280;DHT22;11764;43.100;25.716;2022-07-04T00:46:32;24.80;99.90
21280;DHT22;11764;43.100;25.716;2022-07-04T00:48:57;24.80;99.90
21280;DHT22;11764;43.100;25.716;2022-07-04T00:51:23;24.90;99.90
21280;DHT22;11764;43.100;25.716;2022-07-04T00:53:52;24.80;99.90
21280;DHT22;11764;43.100;25.716;2022-07-04T00:56:18;24.80;99.90
21280;DHT22;11764;43.100;25.716;2022-07-04T00:58:43;24.70;99.90
21280;DHT22;11764;43.100;25.716;2022-07-04T01:01:09;24.70;99.90
21280;DHT22;11764;43.100;25.716;2022-07-04T01:03:34;24.40;99.90
21280;DHT22;11764;43.100;25.716;2022-07-04T01:06:00;24.20;99.90
21280;DHT22;11764;43.100;25.716;2022-07-04T01:08:26;24.00;99.90
21280;DHT22;11764;43.100;25.716;2022-07-04T01:10:51;23.90;99.90
21280;DHT22;11764;43.100;25.716;2022-07-04T01:13:20;24.00;99.90
21280;DHT22;11764;43.100;25.716;2022-07-04T01:15:46;24.00;99.90
21280;DHT22;11764;43.100;25.716;2022-07-04T01:18:12;23.90;99.90
21280;DHT22;11764;43.100;25.716;2022-07-04T01:20:37;23.90;99.90
21280;DHT22;11764;43.100;25.716;2022-07-04T01:23:03;23.90;99.90
21280;DHT22;11764;43.100;25.716;2022-07-04T01:25:29;23.70;99.90
21280;DHT22;11764;43.100;25.716;2022-07-04T01:27:55;23.50;99.90
21280;DHT22;11764;43.100;25.716;2022-07-04T01:30:20;23.50;99.90
21280;DHT22;11764;43.100;25.716;2022-07-04T01:32:46;23.40;99.90
21280;DHT22;11764;43.100;25.716;2022-07-04T01:35:11;23.30;99.90
21280;DHT22;11764;43.100;25.716;2022-07-04T01:37:38;23.20;99.90
21280;DHT22;11764;43.100;25.716;2022-07-04T01:40:03;23.20;99.90
21280;DHT22;11764;43.100;25.716;2022-07-04T01:42:29;23.20;99.90
21280;DHT22;11764;43.100;25.716;2022-07-04T01:44:55;22.90;99.90
21280;DHT22;11764;43.100;25.716;2022-07-04T01:47:20;22.90;99.90
21280;DHT22;11764;43.100;25.716;2022-07-04T01:49:46;22.80;99.90
21280;DHT22;11764;43.100;25.716;2022-07-04T01:52:11;22.70;99.90
21280;DHT22;11764;43.100;25.716;2022-07-04T01:54:37;22.80;99.90
21280;DHT22;11764;43.100;25.716;2022-07-04T01:57:03;22.80;99.90
21280;DHT22;11764;43.100;25.716;2022-07-04T01:59:28;22.70;99.90
21280;DHT22;11764;43.100;25.716;2022-07-04T02:02:12;22.80;99.90
21280;DHT22;11764;43.100;25.716;2022-07-04T02:04:38;22.60;99.90
21280;DHT22;11764;43.100;25.716;2022-07-04T02:07:03;22.50;99.90
21280;DHT22;11764;43.100;25.716;2022-07-04T02:09:29;22.30;99.90
21280;DHT22;11764;43.100;25.716;2022-07-04T02:11:56;22.20;99.90
21280;DHT22;11764;43.100;25.716;2022-07-04T02:14:39;22.20;99.90
21280;DHT22;11764;43.100;25.716;2022-07-04T02:17:07;22.20;99.90
21280;DHT22;11764;43.100;25.716;2022-07-04T02:19:32;22.00;99.90
21280;DHT22;11764;43.100;25.716;2022-07-04T02:21:58;21.90;99.90
21280;DHT22;11764;43.100;25.716;2022-07-04T02:24:23;21.90;99.90
21280;DHT22;11764;43.100;25.716;2022-07-04T02:26:49;21.70;99.90
21280;DHT22;11764;43.100;25.716;2022-07-04T02:29:14;21.50;99.90
21280;DHT22;11764;43.100;25.716;2022-07-04T02:31:40;21.40;99.90
21280;DHT22;11764;43.100;25.716;2022-07-04T02:34:06;21.40;99.90
21280;DHT22;11764;43.100;25.716;2022-07-04T02:36:31;21.40;99.90
21280;DHT22;11764;43.100;25.716;2022-07-04T02:38:57;21.40;99.90
21280;DHT22;11764;43.100;25.716;2022-07-04T02:41:22;21.30;99.90
21280;DHT22;11764;43.100;25.716;2022-07-04T02:43:48;21.20;99.90
21280;DHT22;11764;43.100;25.716;2022-07-04T02:46:14;21.50;99.90
21280;DHT22;11764;43.100;25.716;2022-07-04T02:48:39;21.70;99.90
21280;DHT22;11764;43.100;25.716;2022-07-04T02:51:05;21.90;99.90
21280;DHT22;11764;43.100;25.716;2022-07-04T02:53:30;21.90;99.90
21280;DHT22;11764;43.100;25.716;2022-07-04T02:55:56;22.00;99.90
21280;DHT22;11764;43.100;25.716;2022-07-04T02:58:21;22.60;99.90
21280;DHT22;11764;43.100;25.716;2022-07-04T03:00:47;22.40;99.90
21280;DHT22;11764;43.100;25.716;2022-07-04T03:03:12;22.40;99.90
21280;DHT22;11764;43.100;25.716;2022-07-04T03:05:38;22.40;99.90
21280;DHT22;11764;43.100;25.716;2022-07-04T03:08:03;22.30;99.90
21280;DHT22;11764;43.100;25.716;2022-07-04T03:10:29;22.20;99.90
21280;DHT22;11764;43.100;25.716;2022-07-04T03:12:55;22.20;99.90
21280;DHT22;11764;43.100;25.716;2022-07-04T03:15:20;22.10;99.90
21280;DHT22;11764;43.100;25.716;2022-07-04T03:17:46;22.20;99.90
21280;DHT22;11764;43.100;25.716;2022-07-04T03:20:11;22.20;99.90
21280;DHT22;11764;43.100;25.716;2022-07-04T03:22:37;22.30;99.90
21280;DHT22;11764;43.100;25.716;2022-07-04T03:25:02;22.30;99.90
21280;DHT22;11764;43.100;25.716;2022-07-04T03:27:28;22.30;99.90
21280;DHT22;11764;43.100;25.716;2022-07-04T03:29:53;22.50;99.90
21280;DHT22;11764;43.100;25.716;2022-07-04T03:32:19;22.50;99.90
21280;DHT22;11764;43.100;25.716;2022-07-04T03:34:45;22.50;99.90
21280;DHT22;11764;43.100;25.716;2022-07-04T03:37:10;22.60;99.90
21280;DHT22;11764;43.100;25.716;2022-07-04T03:39:36;22.70;99.90
21280;DHT22;11764;43.100;25.716;2022-07-04T03:42:01;22.80;99.90
21280;DHT22;11764;43.100;25.716;2022-07-04T03:44:27;23.00;99.90
21280;DHT22;11764;43.100;25.716;2022-07-04T03:46:52;23.20;99.90
21280;DHT22;11764;43.100;25.716;2022-07-04T03:49:18;23.60;99.90
21280;DHT22;11764;43.100;25.716;2022-07-04T03:51:43;23.50;99.90
21280;DHT22;11764;43.100;25.716;2022-07-04T03:54:09;22.90;99.90
21280;DHT22;11764;43.100;25.716;2022-07-04T03:56:34;22.80;99.90
21280;DHT22;11764;43.100;25.716;2022-07-04T03:59:00;23.10;99.90
21280;DHT22;11764;43.100;25.716;2022-07-04T04:01:25;23.40;99.90
21280;DHT22;11764;43.100;25.716;2022-07-04T04:03:51;23.70;99.90
21280;DHT22;11764;43.100;25.716;2022-07-04T04:06:35;24.00;99.90
21280;DHT22;11764;43.100;25.716;2022-07-04T04:09:01;24.30;99.90
21280;DHT22;11764;43.100;25.716;2022-07-04T04:11:26;24.40;99.90
21280;DHT22;11764;43.100;25.716;2022-07-04T04:13:52;24.60;99.90
21280;DHT22;11764;43.100;25.716;2022-07-04T04:16:18;24.60;99.90
21280;DHT22;11764;43.100;25.716;2022-07-04T04:18:43;24.70;99.90
21280;DHT22;11764;43.100;25.716;2022-07-04T04:21:09;24.70;99.90
21280;DHT22;11764;43.100;25.716;2022-07-04T04:23:34;24.80;99.90
21280;DHT22;11764;43.100;25.716;2022-07-04T04:26:00;25.00;99.90
21280;DHT22;11764;43.100;25.716;2022-07-04T04:28:25;25.10;99.90
21280;DHT22;11764;43.100;25.716;2022-07-04T04:30:51;25.10;99.90
21280;DHT22;11764;43.100;25.716;2022-07-04T04:33:16;24.80;99.90
21280;DHT22;11764;43.100;25.716;2022-07-04T04:35:42;25.00;99.90
21280;DHT22;11764;43.100;25.716;2022-07-04T04:38:08;25.10;99.90
21280;DHT22;11764;43.100;25.716;2022-07-04T04:40:33;25.30;99.90
21280;DHT22;11764;43.100;25.716;2022-07-04T04:42:59;25.40;99.90
21280;DHT22;11764;43.100;25.716;2022-07-04T04:45:24;25.50;99.90
21280;DHT22;11764;43.100;25.716;2022-07-04T04:47:50;25.50;99.90
21280;DHT22;11764;43.100;25.716;2022-07-04T04:50:17;25.60;99.90
21280;DHT22;11764;43.100;25.716;2022-07-04T04:52:42;25.70;99.90
21280;DHT22;11764;43.100;25.716;2022-07-04T04:55:08;25.80;99.90
21280;DHT22;11764;43.100;25.716;2022-07-04T04:57:34;25.90;99.90
21280;DHT22;11764;43.100;25.716;2022-07-04T05:00:00;26.00;99.90
21280;DHT22;11764;43.100;25.716;2022-07-04T05:02:25;26.10;99.90
21280;DHT22;11764;43.100;25.716;2022-07-04T05:04:52;26.20;99.90
21280;DHT22;11764;43.100;25.716;2022-07-04T05:07:18;26.30;99.90
21280;DHT22;11764;43.100;25.716;2022-07-04T05:09:43;26.30;99.90
21280;DHT22;11764;43.100;25.716;2022-07-04T05:12:09;26.40;99.90
21280;DHT22;11764;43.100;25.716;2022-07-04T05:14:35;26.50;99.90
21280;DHT22;11764;43.100;25.716;2022-07-04T05:17:00;26.40;99.90
21280;DHT22;11764;43.100;25.716;2022-07-04T05:19:26;26.30;99.90
21280;DHT22;11764;43.100;25.716;2022-07-04T05:21:51;26.20;99.90
21280;DHT22;11764;43.100;25.716;2022-07-04T05:24:17;26.30;99.90
21280;DHT22;11764;43.100;25.716;2022-07-04T05:26:43;26.30;99.90
21280;DHT22;11764;43.100;25.716;2022-07-04T05:29:08;26.30;99.90
21280;DHT22;11764;43.100;25.716;2022-07-04T05:31:34;26.30;99.90
21280;DHT22;11764;43.100;25.716;2022-07-04T05:33:59;26.20;99.90
21280;DHT22;11764;43.100;25.716;2022-07-04T05:36:25;26.30;99.90
21280;DHT22;11764;43.100;25.716;2022-07-04T05:38:51;26.40;99.90
21280;DHT22;11764;43.100;25.716;2022-07-04T05:41:17;26.20;99.90
21280;DHT22;11764;43.100;25.716;2022-07-04T05:43:42;26.20;99.90
21280;DHT22;11764;43.100;25.716;2022-07-04T05:46:08;26.30;99.90
21280;DHT22;11764;43.100;25.716;2022-07-04T05:48:34;26.60;99.90
21280;DHT22;11764;43.100;25.716;2022-07-04T05:50:59;26.70;99.90
21280;DHT22;11764;43.100;25.716;2022-07-04T05:53:25;26.80;99.90
21280;DHT22;11764;43.100;25.716;2022-07-04T05:55:51;26.80;99.90
21280;DHT22;11764;43.100;25.716;2022-07-04T05:58:16;26.80;99.90
21280;DHT22;11764;43.100;25.716;2022-07-04T06:00:42;26.90;99.90
21280;DHT22;11764;43.100;25.716;2022-07-04T06:03:08;26.80;99.90
21280;DHT22;11764;43.100;25.716;2022-07-04T06:05:33;26.90;99.90
21280;DHT22;11764;43.100;25.716;2022-07-04T06:07:59;27.00;99.90
21280;DHT22;11764;43.100;25.716;2022-07-04T06:10:25;27.20;99.90
21280;DHT22;11764;43.100;25.716;2022-07-04T06:12:50;27.30;99.90
21280;DHT22;11764;43.100;25.716;2022-07-04T06:15:16;27.50;99.90
21280;DHT22;11764;43.100;25.716;2022-07-04T06:17:41;27.50;99.90
21280;DHT22;11764;43.100;25.716;2022-07-04T06:20:07;27.60;99.90
21280;DHT22;11764;43.100;25.716;2022-07-04T06:22:42;27.70;99.90
21280;DHT22;11764;43.100;25.716;2022-07-04T06:25:15;27.70;99.90
21280;DHT22;11764;43.100;25.716;2022-07-04T06:27:41;27.90;99.90
21280;DHT22;11764;43.100;25.716;2022-07-04T06:30:07;27.90;99.90
21280;DHT22;11764;43.100;25.716;2022-07-04T06:32:43;27.90;99.90
21280;DHT22;11764;43.100;25.716;2022-07-04T06:35:09;28.10;99.90
21280;DHT22;11764;43.100;25.716;2022-07-04T06:37:53;28.20;99.90
21280;DHT22;11764;43.100;25.716;2022-07-04T06:40:18;28.20;99.90
21280;DHT22;11764;43.100;25.716;2022-07-04T06:42:44;28.30;99.90
21280;DHT22;11764;43.100;25.716;2022-07-04T06:45:10;28.50;99.90
21280;DHT22;11764;43.100;25.716;2022-07-04T06:47:35;28.60;99.90
21280;DHT22;11764;43.100;25.716;2022-07-04T06:50:01;28.80;99.90
21280;DHT22;11764;43.100;25.716;2022-07-04T06:52:26;28.90;99.90
21280;DHT22;11764;43.100;25.716;2022-07-04T06:54:52;28.90;99.90
21280;DHT22;11764;43.100;25.716;2022-07-04T06:57:17;29.10;99.90
21280;DHT22;11764;43.100;25.716;2022-07-04T06:59:43;29.20;99.90
21280;DHT22;11764;43.100;25.716;2022-07-04T07:02:08;29.30;99.90
21280;DHT22;11764;43.100;25.716;2022-07-04T07:04:34;29.30;99.90
21280;DHT22;11764;43.100;25.716;2022-07-04T07:06:59;29.30;99.90
21280;DHT22;11764;43.100;25.716;2022-07-04T07:09:25;29.30;99.90
21280;DHT22;11764;43.100;25.716;2022-07-04T07:11:50;29.30;99.90
21280;DHT22;11764;43.100;25.716;2022-07-04T07:14:16;29.20;99.90
21280;DHT22;11764;43.100;25.716;2022-07-04T07:16:41;29.20;99.90
21280;DHT22;11764;43.100;25.716;2022-07-04T07:19:07;29.50;99.90
21280;DHT22;11764;43.100;25.716;2022-07-04T07:21:32;29.60;99.90
21280;DHT22;11764;43.100;25.716;2022-07-04T07:23:58;29.70;99.90
21280;DHT22;11764;43.100;25.716;2022-07-04T07:26:25;29.80;99.90
21280;DHT22;11764;43.100;25.716;2022-07-04T07:28:51;29.90;99.90
21280;DHT22;11764;43.100;25.716;2022-07-04T07:31:16;29.90;99.90
21280;DHT22;11764;43.100;25.716;2022-07-04T07:33:42;30.00;99.90
21280;DHT22;11764;43.100;25.716;2022-07-04T07:36:08;30.10;99.90
21280;DHT22;11764;43.100;25.716;2022-07-04T07:38:33;30.10;99.90
21280;DHT22;11764;43.100;25.716;2022-07-04T07:40:59;30.10;99.90
21280;DHT22;11764;43.100;25.716;2022-07-04T07:43:24;30.20;99.90
21280;DHT22;11764;43.100;25.716;2022-07-04T07:45:50;30.20;99.90
21280;DHT22;11764;43.100;25.716;2022-07-04T07:48:16;30.20;99.90
21280;DHT22;11764;43.100;25.716;2022-07-04T07:50:41;30.30;99.90
21280;DHT22;11764;43.100;25.716;2022-07-04T07:53:07;30.40;99.90
21280;DHT22;11764;43.100;25.716;2022-07-04T07:55:32;30.40;99.90
21280;DHT22;11764;43.100;25.716;2022-07-04T07:57:58;30.50;99.90
21280;DHT22;11764;43.100;25.716;2022-07-04T08:00:24;30.50;99.90
21280;DHT22;11764;43.100;25.716;2022-07-04T08:02:50;30.60;99.90
21280;DHT22;11764;43.100;25.716;2022-07-04T08:05:34;30.80;99.90
21280;DHT22;11764;43.100;25.716;2022-07-04T08:07:59;30.90;99.90
21280;DHT22;11764;43.100;25.716;2022-07-04T08:10:25;30.90;99.90
21280;DHT22;11764;43.100;25.716;2022-07-04T08:12:51;30.90;98.40
21280;DHT22;11764;43.100;25.716;2022-07-04T08:15:17;30.90;97.10
21280;DHT22;11764;43.100;25.716;2022-07-04T08:17:42;30.80;97.60
21280;DHT22;11764;43.100;25.716;2022-07-04T08:20:10;30.70;97.30
21280;DHT22;11764;43.100;25.716;2022-07-04T08:22:35;30.90;97.60
21280;DHT22;11764;43.100;25.716;2022-07-04T08:25:01;30.90;97.50
21280;DHT22;11764;43.100;25.716;2022-07-04T08:27:27;31.00;97.20
21280;DHT22;11764;43.100;25.716;2022-07-04T08:29:52;31.10;98.10
21280;DHT22;11764;43.100;25.716;2022-07-04T08:32:18;31.20;97.10
21280;DHT22;11764;43.100;25.716;2022-07-04T08:34:43;31.20;95.80
21280;DHT22;11764;43.100;25.716;2022-07-04T08:37:09;31.40;95.60
21280;DHT22;11764;43.100;25.716;2022-07-04T08:39:34;31.60;95.10
21280;DHT22;11764;43.100;25.716;2022-07-04T08:42:05;31.70;95.60
21280;DHT22;11764;43.100;25.716;2022-07-04T08:44:33;31.80;94.80
21280;DHT22;11764;43.100;25.716;2022-07-04T08:46:59;31.90;94.50
21280;DHT22;11764;43.100;25.716;2022-07-04T08:49:27;31.50;94.50
21280;DHT22;11764;43.100;25.716;2022-07-04T08:52:02;31.60;96.00
21280;DHT22;11764;43.100;25.716;2022-07-04T08:54:29;31.70;96.20
21280;DHT22;11764;43.100;25.716;2022-07-04T08:57:14;31.60;94.50
21280;DHT22;11764;43.100;25.716;2022-07-04T08:59:59;31.60;95.90
21280;DHT22;11764;43.100;25.716;2022-07-04T09:02:24;31.70;94.50
21280;DHT22;11764;43.100;25.716;2022-07-04T09:04:52;31.70;95.30
21280;DHT22;11764;43.100;25.716;2022-07-04T09:07:18;31.20;94.70
21280;DHT22;11764;43.100;25.716;2022-07-04T09:09:43;31.40;95.60
21280;DHT22;11764;43.100;25.716;2022-07-04T09:12:10;31.60;94.40
21280;DHT22;11764;43.100;25.716;2022-07-04T09:14:36;31.40;95.70
21280;DHT22;11764;43.100;25.716;2022-07-04T09:17:01;31.50;94.90
21280;DHT22;11764;43.100;25.716;2022-07-04T09:19:27;31.50;95.40
21280;DHT22;11764;43.100;25.716;2022-07-04T09:21:53;31.30;94.40
21280;DHT22;11764;43.100;25.716;2022-07-04T09:27:02;31.60;95.40
21280;DHT22;11764;43.100;25.716;2022-07-04T09:29:28;31.80;94.30
21280;DHT22;11764;43.100;25.716;2022-07-04T09:31:54;32.00;92.80
21280;DHT22;11764;43.100;25.716;2022-07-04T09:34:20;32.20;93.90
21280;DHT22;11764;43.100;25.716;2022-07-04T09:36:45;32.20;94.90
21280;DHT22;11764;43.100;25.716;2022-07-04T09:39:17;31.80;93.80
21280;DHT22;11764;43.100;25.716;2022-07-04T09:44:17;32.00;94.80
21280;DHT22;11764;43.100;25.716;2022-07-04T09:46:42;32.00;94.90
21280;DHT22;11764;43.100;25.716;2022-07-04T09:49:09;31.90;94.10
21280;DHT22;11764;43.100;25.716;2022-07-04T09:51:42;32.00;94.90
21280;DHT22;11764;43.100;25.716;2022-07-04T09:56:43;31.80;94.40
21280;DHT22;11764;43.100;25.716;2022-07-04T09:59:09;31.80;94.50
21280;DHT22;11764;43.100;25.716;2022-07-04T10:01:34;32.00;94.00
21280;DHT22;11764;43.100;25.716;2022-07-04T10:04:01;31.90;94.50
21280;DHT22;11764;43.100;25.716;2022-07-04T10:06:31;32.20;95.20
21280;DHT22;11764;43.100;25.716;2022-07-04T10:09:05;32.00;95.00
21280;DHT22;11764;43.100;25.716;2022-07-04T10:11:33;32.00;94.80
21280;DHT22;11764;43.100;25.716;2022-07-04T10:14:00;32.10;95.30
21280;DHT22;11764;43.100;25.716;2022-07-04T10:16:25;32.30;94.20
21280;DHT22;11764;43.100;25.716;2022-07-04T10:18:51;32.40;93.80
21280;DHT22;11764;43.100;25.716;2022-07-04T10:21:19;32.40;93.90
21280;DHT22;11764;43.100;25.716;2022-07-04T10:23:45;32.20;93.50
21280;DHT22;11764;43.100;25.716;2022-07-04T10:26:11;32.20;93.00
21280;DHT22;11764;43.100;25.716;2022-07-04T10:28:37;32.50;93.80
21280;DHT22;11764;43.100;25.716;2022-07-04T10:31:03;32.60;93.60
21280;DHT22;11764;43.100;25.716;2022-07-04T10:33:29;32.30;93.10
21280;DHT22;11764;43.100;25.716;2022-07-04T10:36:04;32.40;93.20
21280;DHT22;11764;43.100;25.716;2022-07-04T10:38:49;32.40;93.90
21280;DHT22;11764;43.100;25.716;2022-07-04T10:41:14;32.50;92.20
21280;DHT22;11764;43.100;25.716;2022-07-04T10:54:05;32.10;92.00
21280;DHT22;11764;43.100;25.716;2022-07-04T10:56:34;32.30;92.20
21280;DHT22;11764;43.100;25.716;2022-07-04T10:59:00;32.40;92.00
21280;DHT22;11764;43.100;25.716;2022-07-04T11:01:28;32.40;92.30
21280;DHT22;11764;43.100;25.716;2022-07-04T11:03:53;32.60;91.70
21280;DHT22;11764;43.100;25.716;2022-07-04T11:16:59;32.40;91.90
21280;DHT22;11764;43.100;25.716;2022-07-04T11:19:25;32.70;92.00
21280;DHT22;11764;43.100;25.716;2022-07-04T11:21:55;32.60;91.80
21280;DHT22;11764;43.100;25.716;2022-07-04T11:24:22;32.50;91.40
21280;DHT22;11764;43.100;25.716;2022-07-04T11:26:47;32.40;91.10
21280;DHT22;11764;43.100;25.716;2022-07-04T11:29:13;32.30;91.60
21280;DHT22;11764;43.100;25.716;2022-07-04T11:31:43;32.40;91.00
21280;DHT22;11764;43.100;25.716;2022-07-04T11:34:09;32.40;91.30
21280;DHT22;11764;43.100;25.716;2022-07-04T11:36:35;32.50;91.30
21280;DHT22;11764;43.100;25.716;2022-07-04T11:39:05;32.60;91.40
21280;DHT22;11764;43.100;25.716;2022-07-04T11:44:15;32.70;91.20
21280;DHT22;11764;43.100;25.716;2022-07-04T11:47:07;32.60;90.50
21280;DHT22;11764;43.100;25.716;2022-07-04T11:49:33;32.60;89.30
21280;DHT22;11764;43.100;25.716;2022-07-04T11:51:59;32.60;90.50
21280;DHT22;11764;43.100;25.716;2022-07-04T11:54:25;32.60;89.00
21280;DHT22;11764;43.100;25.716;2022-07-04T11:56:50;32.70;89.70
21280;DHT22;11764;43.100;25.716;2022-07-04T11:59:16;32.80;90.90
21280;DHT22;11764;43.100;25.716;2022-07-04T12:01:43;32.70;90.20
21280;DHT22;11764;43.100;25.716;2022-07-04T12:04:18;32.70;90.60
21280;DHT22;11764;43.100;25.716;2022-07-04T12:06:45;32.50;90.20
21280;DHT22;11764;43.100;25.716;2022-07-04T12:09:11;32.50;89.80
21280;DHT22;11764;43.100;25.716;2022-07-04T12:14:21;32.50;90.00
21280;DHT22;11764;43.100;25.716;2022-07-04T12:16:46;32.70;89.50
21280;DHT22;11764;43.100;25.716;2022-07-04T12:19:15;32.80;90.40
21280;DHT22;11764;43.100;25.716;2022-07-04T12:21:43;32.70;88.40
21280;DHT22;11764;43.100;25.716;2022-07-04T12:24:09;32.70;89.70
21280;DHT22;11764;43.100;25.716;2022-07-04T12:26:44;32.80;90.90
21280;DHT22;11764;43.100;25.716;2022-07-04T12:29:10;32.70;89.30
21280;DHT22;11764;43.100;25.716;2022-07-04T12:31:39;32.70;89.70
21280;DHT22;11764;43.100;25.716;2022-07-04T12:34:16;32.70;90.10
21280;DHT22;11764;43.100;25.716;2022-07-04T12:36:48;32.60;89.00
21280;DHT22;11764;43.100;25.716;2022-07-04T12:42:02;32.90;90.30
21280;DHT22;11764;43.100;25.716;2022-07-04T12:44:28;32.90;90.00
21280;DHT22;11764;43.100;25.716;2022-07-04T12:46:57;32.90;88.50
21280;DHT22;11764;43.100;25.716;2022-07-04T12:49:22;33.00;87.70
21280;DHT22;11764;43.100;25.716;2022-07-04T12:51:48;32.90;89.40
21280;DHT22;11764;43.100;25.716;2022-07-04T12:54:14;32.80;89.00
21280;DHT22;11764;43.100;25.716;2022-07-04T12:56:41;33.00;89.70
21280;DHT22;11764;43.100;25.716;2022-07-04T12:59:08;32.90;89.30
21280;DHT22;11764;43.100;25.716;2022-07-04T13:01:34;32.70;88.10
21280;DHT22;11764;43.100;25.716;2022-07-04T13:04:00;32.70;89.10
21280;DHT22;11764;43.100;25.716;2022-07-04T13:06:29;32.70;88.70
21280;DHT22;11764;43.100;25.716;2022-07-04T13:08:55;32.80;89.10
21280;DHT22;11764;43.100;25.716;2022-07-04T13:11:24;32.80;88.70
21280;DHT22;11764;43.100;25.716;2022-07-04T13:14:08;32.70;87.40
21280;DHT22;11764;43.100;25.716;2022-07-04T13:16:34;32.60;86.50
21280;DHT22;11764;43.100;25.716;2022-07-04T13:19:00;32.70;88.30
21280;DHT22;11764;43.100;25.716;2022-07-04T13:21:25;32.70;86.70
21280;DHT22;11764;43.100;25.716;2022-07-04T13:23:53;32.90;85.40
21280;DHT22;11764;43.100;25.716;2022-07-04T13:26:19;32.80;84.80
21280;DHT22;11764;43.100;25.716;2022-07-04T13:28:44;33.00;86.00
21280;DHT22;11764;43.100;25.716;2022-07-04T13:31:10;33.00;86.10
21280;DHT22;11764;43.100;25.716;2022-07-04T13:33:35;33.00;86.20
21280;DHT22;11764;43.100;25.716;2022-07-04T13:36:01;32.90;84.90
21280;DHT22;11764;43.100;25.716;2022-07-04T13:38:27;33.00;84.10
21280;DHT22;11764;43.100;25.716;2022-07-04T13:40:54;33.00;84.70
21280;DHT22;11764;43.100;25.716;2022-07-04T13:43:25;33.00;84.80
21280;DHT22;11764;43.100;25.716;2022-07-04T13:45:52;32.90;85.30
21280;DHT22;11764;43.100;25.716;2022-07-04T13:48:19;32.90;86.10
21280;DHT22;11764;43.100;25.716;2022-07-04T13:50:44;33.10;85.50
21280;DHT22;11764;43.100;25.716;2022-07-04T13:53:10;33.10;84.70
21280;DHT22;11764;43.100;25.716;2022-07-04T13:55:36;33.20;84.10
21280;DHT22;11764;43.100;25.716;2022-07-04T13:58:02;33.00;84.40
21280;DHT22;11764;43.100;25.716;2022-07-04T14:00:28;33.20;83.50
21280;DHT22;11764;43.100;25.716;2022-07-04T14:02:53;33.30;83.60
21280;DHT22;11764;43.100;25.716;2022-07-04T14:05:19;33.10;82.90
21280;DHT22;11764;43.100;25.716;2022-07-04T14:07:44;33.00;83.60
21280;DHT22;11764;43.100;25.716;2022-07-04T14:10:10;33.00;84.20
21280;DHT22;11764;43.100;25.716;2022-07-04T14:12:36;33.10;83.10
21280;DHT22;11764;43.100;25.716;2022-07-04T14:15:02;33.10;83.30
21280;DHT22;11764;43.100;25.716;2022-07-04T14:17:28;33.40;84.50
21280;DHT22;11764;43.100;25.716;2022-07-04T14:19:54;33.20;82.60
21280;DHT22;11764;43.100;25.716;2022-07-04T14:22:19;32.80;83.70
21280;DHT22;11764;43.100;25.716;2022-07-04T14:24:45;32.70;83.10
21280;DHT22;11764;43.100;25.716;2022-07-04T14:27:10;32.70;84.00
21280;DHT22;11764;43.100;25.716;2022-07-04T14:29:36;32.90;84.30
21280;DHT22;11764;43.100;25.716;2022-07-04T14:32:02;32.80;83.30
21280;DHT22;11764;43.100;25.716;2022-07-04T14:34:27;32.80;84.90
21280;DHT22;11764;43.100;25.716;2022-07-04T14:36:53;32.80;84.50
21280;DHT22;11764;43.100;25.716;2022-07-04T14:39:20;32.80;82.80
21280;DHT22;11764;43.100;25.716;2022-07-04T14:41:49;32.80;83.20
21280;DHT22;11764;43.100;25.716;2022-07-04T14:44:14;33.20;83.80
21280;DHT22;11764;43.100;25.716;2022-07-04T14:46:40;33.60;83.50
21280;DHT22;11764;43.100;25.716;2022-07-04T14:49:06;34.30;81.80
21280;DHT22;11764;43.100;25.716;2022-07-04T14:51:31;34.70;79.20
21280;DHT22;11764;43.100;25.716;2022-07-04T14:53:57;34.80;79.70
21280;DHT22;11764;43.100;25.716;2022-07-04T14:56:22;34.80;79.70
21280;DHT22;11764;43.100;25.716;2022-07-04T14:58:48;34.60;79.50
21280;DHT22;11764;43.100;25.716;2022-07-04T15:01:14;34.60;79.50
21280;DHT22;11764;43.100;25.716;2022-07-04T15:03:39;34.70;80.70
21280;DHT22;11764;43.100;25.716;2022-07-04T15:06:05;35.20;79.10
21280;DHT22;11764;43.100;25.716;2022-07-04T15:08:30;35.30;79.00
21280;DHT22;11764;43.100;25.716;2022-07-04T15:10:56;35.50;79.30
21280;DHT22;11764;43.100;25.716;2022-07-04T15:13:21;35.70;77.80
21280;DHT22;11764;43.100;25.716;2022-07-04T15:15:47;35.50;78.30
21280;DHT22;11764;43.100;25.716;2022-07-04T15:18:13;36.10;78.20
21280;DHT22;11764;43.100;25.716;2022-07-04T15:20:38;36.90;75.30
21280;DHT22;11764;43.100;25.716;2022-07-04T15:23:22;36.50;75.10
21280;DHT22;11764;43.100;25.716;2022-07-04T15:26:06;36.70;75.20
21280;DHT22;11764;43.100;25.716;2022-07-04T15:28:32;36.60;75.30
21280;DHT22;11764;43.100;25.716;2022-07-04T15:30:58;37.40;75.00
21280;DHT22;11764;43.100;25.716;2022-07-04T15:33:26;37.50;73.80
21280;DHT22;11764;43.100;25.716;2022-07-04T15:35:52;36.80;73.60
21280;DHT22;11764;43.100;25.716;2022-07-04T15:38:18;36.40;73.40
21280;DHT22;11764;43.100;25.716;2022-07-04T15:40:44;36.00;74.20
21280;DHT22;11764;43.100;25.716;2022-07-04T15:43:09;36.20;73.30
21280;DHT22;11764;43.100;25.716;2022-07-04T15:45:35;36.00;74.70
21280;DHT22;11764;43.100;25.716;2022-07-04T15:48:01;36.40;75.60